createdAt,value
2022-10-25T00:00:18.900Z,71.83
2022-10-25T00:02:45.555Z,71.97
2022-10-25T00:05:15.479Z,72.22
2022-10-25T00:07:42.175Z,72.11
2022-10-25T00:10:09.648Z,72.45
2022-10-25T00:12:44.654Z,72.35
2022-10-25T00:15:14.222Z,72.39
2022-10-25T00:17:41.979Z,72.58
2022-10-25T00:20:09.762Z,72.68
2022-10-25T00:22:36.633Z,72.06
2022-10-25T00:25:04.299Z,71.91
2022-10-25T00:27:30.991Z,71.63
2022-10-25T00:29:57.564Z,71.98
2022-10-25T00:32:24.312Z,71.68
2022-10-25T00:34:50.817Z,72.30
2022-10-25T00:37:17.587Z,72.84
2022-10-25T00:39:45.776Z,73.02
2022-10-25T00:42:19.209Z,72.85
2022-10-25T00:45:01.688Z,73.29
2022-10-25T00:47:38.202Z,73.19
2022-10-25T00:50:34.323Z,72.63
2022-10-25T00:53:09.708Z,72.93
2022-10-25T00:55:42.050Z,72.88
2022-10-25T00:58:15.344Z,72.93
2022-10-25T01:00:43.512Z,72.60
2022-10-25T01:03:10.236Z,72.92
2022-10-25T01:05:37.904Z,72.89
2022-10-25T01:08:06.005Z,73.21
2022-10-25T01:10:32.804Z,73.38
2022-10-25T01:13:02.317Z,73.31
2022-10-25T01:15:37.886Z,72.89
2022-10-25T01:18:10.749Z,73.05
2022-10-25T01:20:55.845Z,73.56
2022-10-25T01:23:34.290Z,73.37
2022-10-25T01:26:20.040Z,73.53
2022-10-25T01:29:28.490Z,73.55
2022-10-25T01:32:03.771Z,73.08
2022-10-25T01:34:39.332Z,73.53
2022-10-25T01:37:12.031Z,74.14
2022-10-25T01:39:49.188Z,73.95
2022-10-25T01:42:46.177Z,74.01
2022-10-25T01:45:22.101Z,74.93
2022-10-25T01:47:56.206Z,75.00
2022-10-25T01:50:28.935Z,74.75
2022-10-25T01:52:55.812Z,75.07
2022-10-25T01:55:31.437Z,74.89
2022-10-25T01:58:21.082Z,75.17
2022-10-25T02:01:18.303Z,74.80
2022-10-25T02:03:59.582Z,74.99
2022-10-25T02:06:56.406Z,75.57
2022-10-25T02:09:39.501Z,76.13
2022-10-25T02:12:11.381Z,75.76
2022-10-25T02:14:48.767Z,75.88
2022-10-25T02:17:24.489Z,75.31
2022-10-25T02:19:55.088Z,75.60
2022-10-25T02:22:25.863Z,74.98
2022-10-25T02:24:53.506Z,75.04
2022-10-25T02:27:23.252Z,74.98
2022-10-25T02:29:52.093Z,75.72
2022-10-25T02:32:18.622Z,74.91
2022-10-25T02:34:49.229Z,75.14
2022-10-25T02:37:16.364Z,75.31
2022-10-25T02:39:43.949Z,75.01
2022-10-25T02:42:11.191Z,75.63
2022-10-25T02:44:37.616Z,75.58
2022-10-25T02:47:04.232Z,75.73
2022-10-25T02:49:30.944Z,76.64
2022-10-25T02:51:57.988Z,76.44
2022-10-25T02:54:24.588Z,75.98
2022-10-25T02:56:52.615Z,75.72
2022-10-25T02:59:19.951Z,76.11
2022-10-25T03:01:46.633Z,76.60
2022-10-25T03:04:13.673Z,76.38
2022-10-25T03:06:40.617Z,75.82
2022-10-25T03:09:07.934Z,76.01
2022-10-25T03:11:34.435Z,76.05
2022-10-25T03:14:00.964Z,75.52
2022-10-25T03:16:27.630Z,75.61
2022-10-25T03:18:57.946Z,75.39
2022-10-25T03:21:24.804Z,75.45
2022-10-25T03:23:52.015Z,75.97
2022-10-25T03:26:19.652Z,75.81
2022-10-25T03:28:46.505Z,75.79
2022-10-25T03:31:15.414Z,75.92
2022-10-25T03:33:42.116Z,75.69
2022-10-25T03:36:09.259Z,75.52
2022-10-25T03:38:36.012Z,75.38
2022-10-25T03:41:02.978Z,75.50
2022-10-25T03:43:29.756Z,75.84
2022-10-25T03:45:56.601Z,75.79
2022-10-25T03:48:23.475Z,75.73
2022-10-25T03:50:49.978Z,76.32
2022-10-25T03:53:16.551Z,76.01
2022-10-25T03:55:43.029Z,76.07
2022-10-25T03:58:09.817Z,76.75
2022-10-25T04:00:36.367Z,76.79
2022-10-25T04:03:03.165Z,76.33
2022-10-25T04:05:30.984Z,76.37
2022-10-25T04:07:59.534Z,76.22
2022-10-25T04:10:26.721Z,75.91
2022-10-25T04:12:54.735Z,76.46
2022-10-25T04:15:22.781Z,76.24
2022-10-25T04:17:50.793Z,75.81
2022-10-25T04:20:17.887Z,76.24
2022-10-25T04:22:44.523Z,76.41
2022-10-25T04:25:11.259Z,76.07
2022-10-25T04:27:37.694Z,76.29
2022-10-25T04:30:04.365Z,76.57
2022-10-25T04:32:30.821Z,76.86
2022-10-25T04:34:58.393Z,76.95
2022-10-25T04:37:25.334Z,77.51
2022-10-25T04:39:51.921Z,77.53
2022-10-25T04:42:19.707Z,77.68
2022-10-25T04:44:46.661Z,77.96
2022-10-25T04:47:18.180Z,77.91
2022-10-25T04:49:44.638Z,77.53
2022-10-25T04:52:11.454Z,77.75
2022-10-25T04:54:37.885Z,78.01
2022-10-25T04:57:04.409Z,78.18
2022-10-25T04:59:30.850Z,77.93
2022-10-25T05:01:57.344Z,78.45
2022-10-25T05:04:23.866Z,78.41
2022-10-25T05:06:50.440Z,78.78
2022-10-25T05:09:16.896Z,78.59
2022-10-25T05:11:43.494Z,78.83
2022-10-25T05:14:10.002Z,78.48
2022-10-25T05:16:36.667Z,78.78
2022-10-25T05:19:03.494Z,78.48
2022-10-25T05:21:31.224Z,78.88
2022-10-25T05:24:01.883Z,82.54
2022-10-25T05:26:30.361Z,83.24
2022-10-25T05:28:57.229Z,82.74
2022-10-25T05:31:29.638Z,80.91
2022-10-25T05:33:59.347Z,79.99
2022-10-25T05:36:28.312Z,77.00
2022-10-25T05:38:55.979Z,76.47
2022-10-25T05:41:22.576Z,77.82
2022-10-25T05:43:49.232Z,78.52
2022-10-25T05:46:24.236Z,78.90
2022-10-25T05:48:51.446Z,78.99
2022-10-25T05:51:33.013Z,79.63
2022-10-25T05:54:03.089Z,79.69
2022-10-25T05:56:31.181Z,80.00
2022-10-25T05:58:58.052Z,80.21
2022-10-25T06:01:28.979Z,79.85
2022-10-25T06:03:56.114Z,79.32
2022-10-25T06:06:23.528Z,79.84
2022-10-25T06:09:02.694Z,80.04
2022-10-25T06:11:30.107Z,79.64
2022-10-25T06:13:56.642Z,79.88
2022-10-25T06:16:24.948Z,80.53
2022-10-25T06:18:53.160Z,80.28
2022-10-25T06:21:22.802Z,79.85
2022-10-25T06:23:50.220Z,80.20
2022-10-25T06:26:20.698Z,80.31
2022-10-25T06:28:47.893Z,80.27
2022-10-25T06:31:17.360Z,80.29
2022-10-25T06:33:44.657Z,80.15
2022-10-25T06:36:17.019Z,80.19
2022-10-25T06:38:44.411Z,80.25
2022-10-25T06:41:18.296Z,79.80
2022-10-25T06:43:44.924Z,79.72
2022-10-25T06:46:32.975Z,79.53
2022-10-25T06:49:01.574Z,79.78
2022-10-25T06:51:29.133Z,80.00
2022-10-25T06:53:59.354Z,79.99
2022-10-25T06:56:27.272Z,79.65
2022-10-25T06:58:54.849Z,79.45
2022-10-25T07:01:23.591Z,79.18
2022-10-25T07:03:51.280Z,79.30
2022-10-25T07:06:21.521Z,79.08
2022-10-25T07:08:55.935Z,79.19
2022-10-25T07:11:24.329Z,78.85
2022-10-25T07:13:51.054Z,78.65
2022-10-25T07:16:21.251Z,78.64
2022-10-25T07:18:48.578Z,78.91
2022-10-25T07:21:19.007Z,78.70
2022-10-25T07:23:46.088Z,78.35
2022-10-25T07:26:15.879Z,78.36
2022-10-25T07:28:45.038Z,78.49
2022-10-25T07:31:13.310Z,78.38
2022-10-25T07:33:39.924Z,78.70
2022-10-25T07:36:10.947Z,78.93
2022-10-25T07:38:39.194Z,78.74
2022-10-25T07:41:12.608Z,78.41
2022-10-25T07:43:39.134Z,78.01
2022-10-25T07:46:06.639Z,78.40
2022-10-25T07:48:34.041Z,78.11
2022-10-25T07:51:12.149Z,77.64
2022-10-25T07:53:39.043Z,78.12
2022-10-25T07:56:06.353Z,78.14
2022-10-25T07:58:33.760Z,77.62
2022-10-25T08:01:06.310Z,77.29
2022-10-25T08:03:33.811Z,77.21
2022-10-25T08:06:02.533Z,77.57
2022-10-25T08:08:30.496Z,77.19
2022-10-25T08:10:57.893Z,77.17
2022-10-25T08:13:25.076Z,76.70
2022-10-25T08:15:56.397Z,76.95
2022-10-25T08:18:23.962Z,76.73
2022-10-25T08:21:02.247Z,76.97
2022-10-25T08:23:31.475Z,77.68
2022-10-25T08:25:58.398Z,77.67
2022-10-25T08:28:24.991Z,77.22
2022-10-25T08:30:54.479Z,76.66
2022-10-25T08:33:21.193Z,76.53
2022-10-25T08:35:47.903Z,75.80
2022-10-25T08:38:14.530Z,76.00
2022-10-25T08:41:10.349Z,75.39
2022-10-25T08:44:05.562Z,75.28
2022-10-25T08:46:39.322Z,74.62
2022-10-25T08:49:43.375Z,74.49
2022-10-25T08:52:39.889Z,73.44
2022-10-25T08:55:31.698Z,72.25
2022-10-25T08:58:00.493Z,72.82
2022-10-25T09:00:37.551Z,72.44
2022-10-25T09:03:05.140Z,71.77
2022-10-25T09:05:35.453Z,71.55
2022-10-25T09:08:15.151Z,71.53
2022-10-25T09:10:54.430Z,70.50
2022-10-25T09:16:18.952Z,67.89
2022-10-25T09:18:52.410Z,66.45
2022-10-25T09:21:33.108Z,65.34
2022-10-25T09:24:05.624Z,64.81
2022-10-25T09:26:38.252Z,64.34
2022-10-25T09:29:27.910Z,63.68
2022-10-25T09:31:59.506Z,63.55
2022-10-25T09:34:32.919Z,63.28
2022-10-25T09:37:16.583Z,63.06
2022-10-25T09:39:49.219Z,62.92
2022-10-25T09:42:53.977Z,62.56
2022-10-25T09:45:31.327Z,63.16
2022-10-25T09:48:11.174Z,63.71
2022-10-25T09:50:47.855Z,63.52
2022-10-25T09:53:21.687Z,63.46
2022-10-25T09:55:56.637Z,63.84
2022-10-25T09:58:39.732Z,64.01
2022-10-25T10:01:15.768Z,64.30
2022-10-25T10:03:44.527Z,64.01
2022-10-25T10:06:22.943Z,64.14
2022-10-25T10:08:53.777Z,64.37
2022-10-25T10:11:21.098Z,64.75
2022-10-25T10:14:03.921Z,64.85
2022-10-25T10:16:41.699Z,64.84
2022-10-25T10:19:21.508Z,64.66
2022-10-25T10:22:17.073Z,63.93
2022-10-25T10:24:47.427Z,63.46
2022-10-25T10:27:26.146Z,62.72
2022-10-25T10:30:15.311Z,62.44
2022-10-25T10:32:42.347Z,61.94
2022-10-25T10:35:31.065Z,60.97
2022-10-25T10:38:22.909Z,60.82
2022-10-25T10:40:51.937Z,60.81
2022-10-25T10:43:23.290Z,60.76
2022-10-25T10:45:51.470Z,60.76
2022-10-25T10:48:21.385Z,60.12
2022-10-25T10:50:50.341Z,59.52
2022-10-25T10:53:29.611Z,58.67
2022-10-25T10:55:59.110Z,58.12
2022-10-25T10:58:32.725Z,57.64
2022-10-25T11:01:00.904Z,57.56
2022-10-25T11:03:59.021Z,57.58
2022-10-25T11:06:35.698Z,56.59
2022-10-25T11:09:20.418Z,56.79
2022-10-25T11:12:10.978Z,57.38
2022-10-25T11:14:38.066Z,56.78
2022-10-25T11:17:27.644Z,56.88
2022-10-25T11:20:41.826Z,57.50
2022-10-25T11:23:13.221Z,57.17
2022-10-25T11:25:57.833Z,57.57
2022-10-25T11:28:39.665Z,57.74
2022-10-25T11:31:27.404Z,58.23
2022-10-25T11:34:22.770Z,58.39
2022-10-25T11:37:21.357Z,57.89
2022-10-25T11:40:13.386Z,57.97
2022-10-25T11:43:00.502Z,57.45
2022-10-25T11:45:39.573Z,57.48
2022-10-25T11:48:24.233Z,57.80
2022-10-25T11:51:17.477Z,58.43
2022-10-25T11:54:17.057Z,57.38
2022-10-25T11:56:58.624Z,58.17
2022-10-25T11:59:44.047Z,57.88
2022-10-25T12:02:42.789Z,57.86
2022-10-25T12:05:48.102Z,58.13
2022-10-25T12:08:21.658Z,57.81
2022-10-25T12:10:54.373Z,58.24
2022-10-25T12:13:28.430Z,58.00
2022-10-25T12:16:07.040Z,58.12
2022-10-25T12:19:00.755Z,57.23
2022-10-25T12:21:32.332Z,57.52
2022-10-25T12:24:00.602Z,56.95
2022-10-25T12:26:40.788Z,57.10
2022-10-25T12:29:16.367Z,57.40
2022-10-25T12:31:49.435Z,57.14
2022-10-25T12:34:27.439Z,57.54
2022-10-25T12:36:57.375Z,58.02
2022-10-25T12:39:31.448Z,57.28
2022-10-25T12:42:03.814Z,57.76
2022-10-25T12:44:59.606Z,57.46
2022-10-25T12:47:41.079Z,57.10
2022-10-25T12:50:21.219Z,57.29
2022-10-25T12:53:06.146Z,57.79
2022-10-25T12:55:48.633Z,59.34
2022-10-25T12:58:47.564Z,60.17
2022-10-25T13:01:32.395Z,59.33
2022-10-25T13:04:02.701Z,59.20
2022-10-25T13:06:35.360Z,59.28
2022-10-25T13:09:08.318Z,59.34
2022-10-25T13:11:47.016Z,59.12
2022-10-25T13:14:51.968Z,60.11
2022-10-25T13:17:18.546Z,60.58
2022-10-25T13:19:55.326Z,59.84
2022-10-25T13:22:39.251Z,58.72
2022-10-25T13:25:14.030Z,59.20
2022-10-25T13:28:26.439Z,59.66
2022-10-25T13:31:51.120Z,59.34
2022-10-25T13:34:21.740Z,59.40
2022-10-25T13:36:54.174Z,59.54
2022-10-25T13:39:44.673Z,58.61
2022-10-25T13:42:34.353Z,58.47
2022-10-25T13:45:02.178Z,58.40
2022-10-25T13:47:38.685Z,57.51
2022-10-25T13:50:42.185Z,57.58
2022-10-25T13:53:40.335Z,57.49
2022-10-25T13:56:08.139Z,57.27
2022-10-25T13:58:40.668Z,57.24
2022-10-25T14:01:16.447Z,57.53
2022-10-25T14:03:50.045Z,57.63
2022-10-25T14:06:34.793Z,57.13
2022-10-25T14:09:23.369Z,57.53
2022-10-25T14:12:13.800Z,58.16
2022-10-25T14:14:48.398Z,58.65
2022-10-25T14:17:32.358Z,58.84
2022-10-25T14:20:02.574Z,59.26
2022-10-25T14:22:53.146Z,59.79
2022-10-25T14:25:48.763Z,59.81
2022-10-25T14:28:21.435Z,60.38
2022-10-25T14:30:51.554Z,59.86
2022-10-25T14:33:35.460Z,58.82
2022-10-25T14:36:24.963Z,58.46
2022-10-25T14:38:54.644Z,58.30
2022-10-25T14:41:25.413Z,56.96
2022-10-25T14:43:52.272Z,56.62
2022-10-25T14:46:21.546Z,56.29
2022-10-25T14:48:49.598Z,56.24
2022-10-25T14:51:22.079Z,56.35
2022-10-25T14:54:05.183Z,57.33
2022-10-25T14:56:32.186Z,57.50
2022-10-25T14:59:00.988Z,57.29
2022-10-25T15:01:29.334Z,57.03
2022-10-25T15:04:00.073Z,57.45
2022-10-25T15:06:30.462Z,56.92
2022-10-25T15:09:28.981Z,56.96
2022-10-25T15:12:22.833Z,56.60
2022-10-25T15:14:49.510Z,57.67
2022-10-25T15:17:30.279Z,58.03
2022-10-25T15:20:01.352Z,58.16
2022-10-25T15:22:32.393Z,58.42
2022-10-25T15:24:59.141Z,58.61
2022-10-25T15:27:40.283Z,58.97
2022-10-25T15:30:07.562Z,59.06
2022-10-25T15:32:35.899Z,59.36
2022-10-25T15:35:02.771Z,59.60
2022-10-25T15:37:30.263Z,60.35
2022-10-25T15:39:57.508Z,60.50
2022-10-25T15:42:26.044Z,61.06
2022-10-25T15:44:53.413Z,61.30
2022-10-25T15:47:35.561Z,61.36
2022-10-25T15:50:05.302Z,61.63
2022-10-25T15:52:32.053Z,62.90
2022-10-25T15:54:58.845Z,63.40
2022-10-25T15:57:27.356Z,64.04
2022-10-25T15:59:54.074Z,64.33
2022-10-25T16:02:28.740Z,64.61
2022-10-25T16:04:56.513Z,64.52
2022-10-25T16:07:23.181Z,65.05
2022-10-25T16:09:49.804Z,65.29
2022-10-25T16:12:32.068Z,66.36
2022-10-25T16:15:01.073Z,66.49
2022-10-25T16:17:28.393Z,66.85
2022-10-25T16:19:55.221Z,66.92
2022-10-25T16:22:21.869Z,67.95
2022-10-25T16:24:48.672Z,68.56
2022-10-25T16:27:15.327Z,68.74
2022-10-25T16:29:43.898Z,69.38
2022-10-25T16:32:11.847Z,69.18
2022-10-25T16:34:42.338Z,69.63
2022-10-25T16:37:11.923Z,69.69
2022-10-25T16:39:39.060Z,70.04
2022-10-25T16:42:26.446Z,70.10
2022-10-25T16:44:52.984Z,70.34
2022-10-25T16:47:21.447Z,70.76
2022-10-25T16:49:48.225Z,70.37
2022-10-25T16:52:16.018Z,70.58
2022-10-25T16:54:42.650Z,70.96
2022-10-25T16:57:09.873Z,70.80
2022-10-25T16:59:37.921Z,72.17
2022-10-25T17:02:05.123Z,72.56
2022-10-25T17:04:31.737Z,72.46
2022-10-25T17:06:59.212Z,72.10
2022-10-25T17:09:25.894Z,72.39
2022-10-25T17:11:52.657Z,71.95
2022-10-25T17:14:19.317Z,72.12
2022-10-25T17:16:46.224Z,72.52
2022-10-25T17:19:13.453Z,72.56
2022-10-25T17:21:40.506Z,72.64
2022-10-25T17:24:09.683Z,74.05
2022-10-25T17:26:37.223Z,73.92
2022-10-25T17:29:04.570Z,74.20
2022-10-25T17:31:32.661Z,73.81
2022-10-25T17:34:00.945Z,74.03
2022-10-25T17:36:29.431Z,74.57
2022-10-25T17:39:04.584Z,74.88
2022-10-25T17:41:31.355Z,75.67
2022-10-25T17:43:58.289Z,76.47
2022-10-25T17:46:32.356Z,77.02
2022-10-25T17:49:03.586Z,80.14
2022-10-25T17:51:31.847Z,81.20
2022-10-25T17:53:58.339Z,78.07
2022-10-25T17:56:27.207Z,76.80
2022-10-25T17:58:54.496Z,77.85
2022-10-25T18:01:24.270Z,75.82
2022-10-25T18:03:51.350Z,76.79
2022-10-25T18:06:20.348Z,76.99
2022-10-25T18:08:56.909Z,76.81
2022-10-25T18:11:26.540Z,76.33
2022-10-25T18:13:55.601Z,76.83
2022-10-25T18:16:26.321Z,76.96
2022-10-25T18:18:55.185Z,76.82
2022-10-25T18:21:25.021Z,76.41
2022-10-25T18:24:00.463Z,76.68
2022-10-25T18:26:28.363Z,77.36
2022-10-25T18:28:58.221Z,76.88
2022-10-25T18:31:27.289Z,77.47
2022-10-25T18:34:00.215Z,77.57
2022-10-25T18:36:27.590Z,77.92
2022-10-25T18:38:54.849Z,78.31
2022-10-25T18:41:24.028Z,77.82
2022-10-25T18:43:51.096Z,77.51
2022-10-25T18:46:18.456Z,78.26
2022-10-25T18:48:51.457Z,78.46
2022-10-25T18:51:20.950Z,78.40
2022-10-25T18:53:47.600Z,77.99
2022-10-25T18:56:21.109Z,78.17
2022-10-25T18:58:48.882Z,77.85
2022-10-25T19:01:26.127Z,78.09
2022-10-25T19:03:52.805Z,78.79
2022-10-25T19:06:19.714Z,78.71
2022-10-25T19:08:46.444Z,79.16
2022-10-25T19:11:13.741Z,79.42
2022-10-25T19:13:41.102Z,79.25
2022-10-25T19:16:09.954Z,79.60
2022-10-25T19:18:37.476Z,80.07
2022-10-25T19:21:10.222Z,79.53
2022-10-25T19:23:39.260Z,79.76
2022-10-25T19:26:08.204Z,80.23
2022-10-25T19:28:35.041Z,80.94
2022-10-25T19:31:16.119Z,80.50
2022-10-25T19:33:48.115Z,80.07
2022-10-25T19:36:16.243Z,79.40
2022-10-25T19:38:45.478Z,79.41
2022-10-25T19:41:16.372Z,79.64
2022-10-25T19:43:43.131Z,80.41
2022-10-25T19:46:11.020Z,80.99
2022-10-25T19:48:37.976Z,81.56
2022-10-25T19:51:06.490Z,81.32
2022-10-25T19:53:34.551Z,81.30
2022-10-25T19:56:09.739Z,81.53
2022-10-25T19:58:38.610Z,81.38
2022-10-25T20:01:15.679Z,81.65
2022-10-25T20:03:43.450Z,80.86
2022-10-25T20:06:18.749Z,81.00
2022-10-25T20:08:48.854Z,81.63
2022-10-25T20:11:17.287Z,81.58
2022-10-25T20:13:44.620Z,81.88
2022-10-25T20:16:14.090Z,81.05
2022-10-25T20:18:42.309Z,81.03
2022-10-25T20:21:13.411Z,81.06
2022-10-25T20:23:42.919Z,80.37
2022-10-25T20:26:12.072Z,80.57
2022-10-25T20:28:38.576Z,80.79
2022-10-25T20:31:05.313Z,80.84
2022-10-25T20:33:31.878Z,80.40
2022-10-25T20:36:04.657Z,80.44
2022-10-25T20:38:31.870Z,80.52
2022-10-25T20:41:20.514Z,81.66
2022-10-25T20:43:49.481Z,81.82
2022-10-25T20:46:18.588Z,81.90
2022-10-25T20:48:51.194Z,81.72
2022-10-25T20:51:19.119Z,81.42
2022-10-25T20:53:46.462Z,81.63
2022-10-25T20:56:15.574Z,81.49
2022-10-25T20:58:43.129Z,81.42
2022-10-25T21:01:10.164Z,81.73
2022-10-25T21:03:37.292Z,82.01
2022-10-25T21:06:06.385Z,82.23
2022-10-25T21:08:34.128Z,82.37
2022-10-25T21:11:02.910Z,81.79
2022-10-25T21:13:31.859Z,81.57
2022-10-25T21:15:59.057Z,81.26
2022-10-25T21:18:28.963Z,81.46
2022-10-25T21:21:00.519Z,81.52
2022-10-25T21:23:28.460Z,81.31
2022-10-25T21:26:09.066Z,81.25
2022-10-25T21:28:38.663Z,81.64
2022-10-25T21:31:08.782Z,81.69
2022-10-25T21:33:35.950Z,81.28
2022-10-25T21:36:07.992Z,80.94
2022-10-25T21:38:34.887Z,80.62
2022-10-25T21:41:10.087Z,80.41
2022-10-25T21:43:37.586Z,80.96
2022-10-25T21:46:05.655Z,81.00
2022-10-25T21:48:32.542Z,81.33
2022-10-25T21:50:59.825Z,81.27
2022-10-25T21:53:26.396Z,81.22
2022-10-25T21:56:06.551Z,81.85
2022-10-25T21:58:33.289Z,81.80
2022-10-25T22:00:59.978Z,82.00
2022-10-25T22:03:31.232Z,81.52
2022-10-25T22:05:59.108Z,81.70
2022-10-25T22:08:25.638Z,81.53
2022-10-25T22:11:02.757Z,81.38
2022-10-25T22:13:29.562Z,81.71
2022-10-25T22:15:57.860Z,81.74
2022-10-25T22:18:25.198Z,81.55
2022-10-25T22:21:18.471Z,81.58
2022-10-25T22:23:45.113Z,81.38
2022-10-25T22:26:14.248Z,81.94
2022-10-25T22:28:42.020Z,81.93
2022-10-25T22:31:16.443Z,82.23
2022-10-25T22:33:44.443Z,83.04
2022-10-25T22:36:15.010Z,83.76
2022-10-25T22:38:43.153Z,83.26
2022-10-25T22:41:12.170Z,83.32
2022-10-25T22:43:40.164Z,83.96
2022-10-25T22:46:12.924Z,83.54
2022-10-25T22:48:43.172Z,85.49
2022-10-25T22:51:11.437Z,85.71
2022-10-25T22:53:39.635Z,85.13
2022-10-25T22:56:07.501Z,84.92
2022-10-25T22:58:35.540Z,85.44
2022-10-25T23:01:13.761Z,85.16
2022-10-25T23:03:43.140Z,85.76
2022-10-25T23:06:15.650Z,84.86
2022-10-25T23:08:43.276Z,84.20
2022-10-25T23:11:22.005Z,83.80
2022-10-25T23:13:49.310Z,84.16
2022-10-25T23:16:17.063Z,84.12
2022-10-25T23:18:44.523Z,84.20
2022-10-25T23:21:30.878Z,83.62
2022-10-25T23:23:59.781Z,83.74
2022-10-25T23:26:37.715Z,83.61
2022-10-25T23:29:05.947Z,83.19
2022-10-25T23:31:33.121Z,82.80
2022-10-25T23:34:00.639Z,82.73
2022-10-25T23:36:43.083Z,83.92
2022-10-25T23:39:09.713Z,84.81
2022-10-25T23:41:36.573Z,84.82
2022-10-25T23:44:03.722Z,84.85
2022-10-25T23:46:30.228Z,85.05
2022-10-25T23:48:57.644Z,85.13
2022-10-25T23:51:24.645Z,85.02
2022-10-25T23:53:52.197Z,84.62
2022-10-25T23:56:19.329Z,84.46
2022-10-25T23:58:50.376Z,84.52
